createdAt,value
2017-12-21T00:01:01.514Z,58.80
2017-12-21T00:03:29.326Z,57.60
2017-12-21T00:05:57.118Z,54.08
2017-12-21T00:08:24.896Z,56.45
2017-12-21T00:10:52.760Z,62.47
2017-12-21T00:13:20.570Z,57.13
2017-12-21T00:15:48.391Z,55.67
2017-12-21T00:18:16.208Z,55.63
2017-12-21T00:20:44.759Z,54.80
2017-12-21T00:23:12.549Z,56.03
2017-12-21T00:25:41.128Z,55.05
2017-12-21T00:28:08.875Z,56.03
2017-12-21T00:30:36.642Z,58.97
2017-12-21T00:33:04.455Z,53.17
2017-12-21T00:35:32.211Z,57.67
2017-12-21T00:37:59.982Z,51.85
2017-12-21T00:40:27.849Z,53.63
2017-12-21T00:42:55.611Z,51.22
2017-12-21T00:45:24.147Z,54.97
2017-12-21T00:47:52.732Z,51.05
2017-12-21T00:50:21.263Z,53.53
2017-12-21T00:52:49.024Z,52.30
2017-12-21T00:55:16.855Z,53.80
2017-12-21T00:57:44.618Z,50.78
2017-12-21T01:00:13.256Z,54.35
2017-12-21T01:02:41.078Z,54.28
2017-12-21T01:05:08.840Z,53.08
2017-12-21T01:07:36.602Z,54.45
2017-12-21T01:10:04.408Z,49.75
2017-12-21T01:12:33.148Z,51.00
2017-12-21T01:15:00.918Z,52.88
2017-12-21T01:17:28.730Z,55.42
2017-12-21T01:19:56.499Z,55.33
2017-12-21T01:22:25.020Z,54.55
2017-12-21T01:24:52.847Z,56.47
2017-12-21T01:27:21.378Z,57.00
2017-12-21T01:29:49.139Z,55.00
2017-12-21T01:32:16.950Z,56.03
2017-12-21T01:34:45.484Z,58.63
2017-12-21T01:37:13.246Z,57.38
2017-12-21T01:39:41.063Z,57.67
2017-12-21T01:42:08.880Z,61.88
2017-12-21T01:44:36.687Z,62.00
2017-12-21T01:47:04.540Z,60.45
2017-12-21T01:49:33.087Z,57.00
2017-12-21T01:52:00.889Z,61.10
2017-12-21T01:54:29.486Z,60.08
2017-12-21T01:56:57.254Z,60.58
2017-12-21T01:59:25.015Z,63.00
2017-12-21T02:01:52.887Z,62.03
2017-12-21T02:04:20.651Z,60.97
2017-12-21T02:06:48.406Z,59.80
2017-12-21T02:09:16.232Z,62.53
2017-12-21T02:11:44.750Z,62.20
2017-12-21T02:14:12.507Z,61.88
2017-12-21T02:16:40.314Z,60.67
2017-12-21T02:19:08.102Z,58.65
2017-12-21T02:21:36.670Z,59.90
2017-12-21T02:24:04.516Z,57.72
2017-12-21T02:26:32.292Z,57.45
2017-12-21T02:29:00.083Z,56.95
2017-12-21T02:31:28.699Z,57.25
2017-12-21T02:33:56.500Z,52.00
2017-12-21T02:36:24.294Z,55.03
2017-12-21T02:38:52.142Z,58.45
2017-12-21T02:41:20.710Z,54.72
2017-12-21T02:43:49.279Z,57.65
2017-12-21T02:46:17.121Z,56.37
2017-12-21T02:48:44.900Z,54.83
2017-12-21T02:51:12.702Z,54.22
2017-12-21T02:53:41.325Z,50.80
2017-12-21T02:56:09.107Z,51.95
2017-12-21T02:58:36.906Z,56.25
2017-12-21T03:01:05.511Z,53.47
2017-12-21T03:03:33.308Z,52.53
2017-12-21T03:06:01.086Z,55.85
2017-12-21T03:08:28.930Z,49.08
2017-12-21T03:10:56.708Z,50.53
2017-12-21T03:13:24.505Z,50.47
2017-12-21T03:15:53.117Z,50.97
2017-12-21T03:18:20.867Z,48.17
2017-12-21T03:20:48.662Z,47.72
2017-12-21T03:23:16.495Z,47.03
2017-12-21T03:25:44.258Z,49.63
2017-12-21T03:28:12.022Z,48.03
2017-12-21T03:30:39.885Z,50.40
2017-12-21T03:33:07.662Z,46.80
2017-12-21T03:35:35.439Z,45.30
2017-12-21T03:38:03.251Z,45.35
2017-12-21T03:40:31.074Z,48.40
2017-12-21T03:42:58.838Z,48.53
2017-12-21T03:45:26.664Z,48.08
2017-12-21T03:47:54.436Z,49.90
2017-12-21T03:50:22.214Z,43.45
2017-12-21T03:52:50.191Z,46.88
2017-12-21T03:55:17.991Z,46.30
2017-12-21T03:57:45.767Z,47.17
2017-12-21T04:00:13.602Z,46.20
2017-12-21T04:02:42.127Z,45.65
2017-12-21T04:05:09.896Z,45.63
2017-12-21T04:07:37.726Z,44.40
2017-12-21T04:10:05.496Z,46.85
2017-12-21T04:12:33.247Z,45.58
2017-12-21T04:15:01.064Z,45.38
2017-12-21T04:17:28.817Z,46.70
2017-12-21T04:19:56.587Z,45.20
2017-12-21T04:22:24.394Z,42.40
2017-12-21T04:24:52.159Z,44.03
2017-12-21T04:27:19.913Z,41.70
2017-12-21T04:29:48.488Z,44.85
2017-12-21T04:32:17.020Z,45.15
2017-12-21T04:34:44.772Z,45.58
2017-12-21T04:37:12.582Z,46.50
2017-12-21T04:39:41.123Z,47.70
2017-12-21T04:42:08.942Z,50.95
2017-12-21T04:44:37.549Z,50.58
2017-12-21T04:47:05.327Z,48.15
2017-12-21T04:49:33.083Z,49.10
2017-12-21T04:52:00.895Z,45.63
2017-12-21T04:54:29.419Z,45.55
2017-12-21T04:56:57.177Z,45.20
2017-12-21T04:59:25.777Z,44.05
2017-12-21T05:01:53.543Z,45.15
2017-12-21T05:04:21.315Z,42.95
2017-12-21T05:06:49.134Z,46.75
2017-12-21T05:09:16.903Z,44.00
2017-12-21T05:11:44.725Z,47.00
2017-12-21T05:14:13.317Z,47.13
2017-12-21T05:16:41.875Z,44.28
2017-12-21T05:19:09.663Z,43.15
2017-12-21T05:21:38.271Z,39.70
2017-12-21T05:24:06.033Z,41.45
2017-12-21T05:26:33.781Z,43.40
2017-12-21T05:29:02.363Z,41.28
2017-12-21T05:31:30.114Z,44.92
2017-12-21T05:33:58.650Z,43.65
2017-12-21T05:36:26.477Z,41.00
2017-12-21T05:38:54.233Z,41.30
2017-12-21T05:41:22.053Z,42.20
2017-12-21T05:43:49.878Z,41.70
2017-12-21T05:46:17.632Z,37.38
2017-12-21T05:48:45.391Z,37.03
2017-12-21T05:51:13.253Z,36.35
2017-12-21T05:53:41.027Z,40.25
2017-12-21T05:56:08.813Z,37.85
2017-12-21T05:58:36.634Z,49.22
2017-12-21T06:01:04.423Z,52.30
2017-12-21T06:03:32.191Z,39.08
2017-12-21T06:06:00.012Z,40.97
2017-12-21T06:08:28.521Z,40.35
2017-12-21T06:10:56.279Z,44.65
2017-12-21T06:13:24.104Z,38.17
2017-12-21T06:15:52.632Z,35.60
2017-12-21T06:18:20.399Z,33.83
2017-12-21T06:20:48.236Z,35.90
2017-12-21T06:23:16.000Z,35.30
2017-12-21T06:25:43.766Z,31.67
2017-12-21T06:28:11.601Z,32.60
2017-12-21T06:30:39.360Z,36.33
2017-12-21T06:33:07.125Z,35.28
2017-12-21T06:35:34.941Z,32.55
2017-12-21T06:38:02.696Z,32.55
2017-12-21T06:40:30.443Z,34.97
2017-12-21T06:42:58.255Z,35.05
2017-12-21T06:45:26.782Z,34.33
2017-12-21T06:47:54.562Z,36.78
2017-12-21T06:50:26.115Z,31.30
2017-12-21T06:52:53.875Z,32.78
2017-12-21T06:55:21.644Z,31.77
2017-12-21T06:57:50.230Z,34.75
2017-12-21T07:00:17.999Z,29.02
2017-12-21T07:02:45.767Z,32.83
2017-12-21T07:05:14.353Z,33.15
2017-12-21T07:07:42.143Z,34.25
2017-12-21T07:10:09.903Z,34.10
2017-12-21T07:12:37.723Z,29.95
2017-12-21T07:15:05.486Z,28.75
2017-12-21T07:17:33.258Z,30.83
2017-12-21T07:20:01.083Z,31.92
2017-12-21T07:22:28.847Z,30.98
2017-12-21T07:24:56.630Z,28.65
2017-12-21T07:27:24.440Z,27.25
2017-12-21T07:29:52.203Z,33.03
2017-12-21T07:32:19.992Z,31.00
2017-12-21T07:34:47.839Z,30.58
2017-12-21T07:37:15.638Z,31.85
2017-12-21T07:39:44.167Z,31.17
2017-12-21T07:42:11.983Z,33.00
2017-12-21T07:44:39.744Z,29.83
2017-12-21T07:47:07.503Z,30.40
2017-12-21T07:49:35.318Z,33.72
2017-12-21T07:52:03.087Z,34.28
2017-12-21T07:54:30.870Z,32.90
2017-12-21T07:56:58.834Z,30.08
2017-12-21T07:59:26.599Z,31.20
2017-12-21T08:01:54.366Z,34.63
2017-12-21T08:04:22.174Z,30.30
2017-12-21T08:06:50.719Z,33.47
2017-12-21T08:09:18.491Z,32.30
2017-12-21T08:11:46.316Z,31.33
2017-12-21T08:14:14.078Z,37.70
2017-12-21T08:16:41.830Z,33.72
2017-12-21T08:19:09.646Z,35.58
2017-12-21T08:21:37.648Z,30.92
2017-12-21T08:24:05.551Z,32.75
2017-12-21T08:26:33.408Z,30.10
2017-12-21T08:29:01.198Z,32.25
2017-12-21T08:31:28.957Z,29.42
2017-12-21T08:33:56.766Z,27.58
2017-12-21T08:36:24.607Z,27.98
2017-12-21T08:38:53.138Z,28.00
2017-12-21T08:41:20.985Z,27.23
2017-12-21T08:43:48.751Z,26.33
2017-12-21T08:46:16.527Z,29.98
2017-12-21T08:48:44.357Z,26.23
2017-12-21T08:51:12.223Z,27.92
2017-12-21T08:53:40.036Z,27.30
2017-12-21T08:56:07.873Z,27.40
2017-12-21T08:58:35.639Z,25.92
2017-12-21T09:01:03.460Z,24.10
2017-12-21T09:03:32.046Z,21.48
2017-12-21T09:06:00.610Z,23.62
2017-12-21T09:08:28.436Z,23.42
2017-12-21T09:10:56.298Z,22.48
2017-12-21T09:13:24.075Z,23.70
2017-12-21T09:15:51.895Z,23.35
2017-12-21T09:18:19.756Z,25.10
2017-12-21T09:20:47.537Z,24.48
2017-12-21T09:23:15.299Z,26.62
2017-12-21T09:25:43.383Z,33.25
2017-12-21T09:28:11.169Z,30.02
2017-12-21T09:30:38.935Z,29.80
2017-12-21T09:33:06.793Z,26.48
2017-12-21T09:35:34.567Z,24.40
2017-12-21T09:38:03.152Z,27.35
2017-12-21T09:40:31.762Z,31.23
2017-12-21T09:42:59.547Z,24.77
2017-12-21T09:45:28.113Z,27.08
2017-12-21T09:47:55.959Z,23.10
2017-12-21T09:50:23.887Z,25.08
2017-12-21T09:52:51.670Z,26.77
2017-12-21T09:55:20.246Z,25.25
2017-12-21T09:57:48.024Z,26.23
2017-12-21T10:00:15.854Z,26.77
2017-12-21T10:02:43.811Z,26.15
2017-12-21T10:05:11.603Z,24.58
2017-12-21T10:07:40.287Z,30.90
2017-12-21T10:10:08.287Z,27.58
2017-12-21T10:12:36.075Z,29.75
2017-12-21T10:15:04.055Z,27.35
2017-12-21T10:17:32.751Z,27.02
2017-12-21T10:20:00.517Z,28.55
2017-12-21T10:22:28.275Z,29.50
2017-12-21T10:24:56.111Z,28.87
2017-12-21T10:27:23.886Z,29.63
2017-12-21T10:29:51.647Z,29.67
2017-12-21T10:32:19.477Z,27.98
2017-12-21T10:34:47.237Z,28.98
2017-12-21T10:37:15.012Z,25.40
2017-12-21T10:39:42.844Z,29.20
2017-12-21T10:42:10.602Z,25.92
2017-12-21T10:44:39.129Z,26.23
2017-12-21T10:47:06.948Z,27.80
2017-12-21T10:49:34.740Z,26.83
2017-12-21T10:52:02.496Z,26.12
2017-12-21T10:54:30.356Z,27.40
2017-12-21T10:56:58.111Z,27.23
2017-12-21T10:59:25.881Z,28.17
2017-12-21T11:01:53.698Z,29.20
2017-12-21T11:04:22.238Z,26.10
2017-12-21T11:06:50.021Z,26.37
2017-12-21T11:09:17.898Z,27.35
2017-12-21T11:11:46.661Z,26.62
2017-12-21T11:14:15.231Z,28.12
2017-12-21T11:16:43.130Z,27.80
2017-12-21T11:19:10.933Z,25.27
2017-12-21T11:21:38.722Z,21.45
2017-12-21T11:24:06.600Z,23.20
2017-12-21T11:26:34.499Z,24.85
2017-12-21T11:29:02.282Z,22.80
2017-12-21T11:31:30.111Z,21.42
2017-12-21T11:33:58.699Z,21.55
2017-12-21T11:36:27.341Z,24.25
2017-12-21T11:38:55.289Z,22.40
2017-12-21T11:41:23.096Z,24.15
2017-12-21T11:43:51.059Z,23.30
2017-12-21T11:46:18.922Z,18.27
2017-12-21T11:48:46.750Z,21.50
2017-12-21T11:51:14.567Z,19.73
2017-12-21T11:53:43.266Z,19.80
2017-12-21T11:56:11.644Z,18.27
2017-12-21T11:58:39.447Z,23.80
2017-12-21T12:01:07.285Z,20.52
2017-12-21T12:03:35.068Z,18.02
2017-12-21T12:06:02.956Z,19.87
2017-12-21T12:08:31.588Z,18.23
2017-12-21T12:11:00.130Z,19.12
2017-12-21T12:13:27.929Z,15.82
2017-12-21T12:15:55.818Z,16.08
2017-12-21T12:18:23.646Z,17.42
2017-12-21T12:20:51.482Z,17.30
2017-12-21T12:23:19.335Z,19.23
2017-12-21T12:25:47.100Z,18.85
2017-12-21T12:28:14.884Z,18.95
2017-12-21T12:30:43.466Z,20.23
2017-12-21T12:33:11.990Z,17.20
2017-12-21T12:35:39.811Z,18.40
2017-12-21T12:38:07.762Z,17.02
2017-12-21T12:40:35.522Z,17.62
2017-12-21T12:43:03.284Z,19.62
2017-12-21T12:45:31.149Z,17.60
2017-12-21T12:47:59.458Z,17.30
2017-12-21T12:50:27.153Z,14.95
2017-12-21T12:52:54.903Z,18.10
2017-12-21T12:55:22.605Z,20.62
2017-12-21T12:57:50.297Z,20.48
2017-12-21T13:00:18.809Z,16.92
2017-12-21T13:02:46.501Z,13.27
2017-12-21T13:05:14.209Z,12.00
2017-12-21T13:07:41.959Z,11.40
2017-12-21T13:10:10.413Z,9.80
2017-12-21T13:12:38.147Z,11.00
2017-12-21T13:15:06.000Z,11.27
2017-12-21T13:17:33.678Z,9.85
2017-12-21T13:20:01.393Z,11.95
2017-12-21T13:22:29.135Z,12.65
2017-12-21T13:24:57.589Z,10.30
2017-12-21T13:27:25.299Z,11.85
2017-12-21T13:29:53.056Z,14.30
2017-12-21T13:32:20.750Z,15.60
2017-12-21T13:34:48.437Z,14.85
2017-12-21T13:37:16.186Z,13.82
2017-12-21T13:39:43.880Z,13.90
2017-12-21T13:42:12.341Z,12.43
2017-12-21T13:44:40.857Z,11.90
2017-12-21T13:47:08.551Z,12.70
2017-12-21T13:49:36.253Z,10.88
2017-12-21T13:52:04.765Z,13.73
2017-12-21T13:54:32.483Z,14.40
2017-12-21T13:57:00.969Z,10.70
2017-12-21T13:59:29.497Z,10.90
2017-12-21T14:01:57.216Z,11.35
2017-12-21T14:04:24.902Z,12.20
2017-12-21T14:06:52.645Z,9.88
2017-12-21T14:09:21.092Z,10.50
2017-12-21T14:11:48.778Z,10.73
2017-12-21T14:14:17.281Z,11.82
2017-12-21T14:16:44.969Z,10.18
2017-12-21T14:19:12.654Z,10.75
2017-12-21T14:21:40.393Z,10.55
2017-12-21T14:24:08.074Z,10.50
2017-12-21T14:26:35.756Z,10.77
2017-12-21T14:29:03.488Z,12.90
2017-12-21T14:31:31.186Z,14.25
2017-12-21T14:33:58.881Z,15.57
2017-12-21T14:36:26.620Z,14.52
2017-12-21T14:38:54.310Z,12.52
2017-12-21T14:41:22.002Z,13.45
2017-12-21T14:43:49.784Z,15.45
2017-12-21T14:46:18.246Z,16.55
2017-12-21T14:48:46.693Z,18.00
2017-12-21T14:51:14.432Z,20.90
2017-12-21T14:53:42.125Z,21.27
2017-12-21T14:56:09.806Z,33.60
2017-12-21T14:58:38.311Z,17.52
2017-12-21T15:01:05.997Z,16.48
2017-12-21T15:03:33.700Z,15.27
2017-12-21T15:06:01.453Z,13.75
2017-12-21T15:08:29.283Z,14.65
2017-12-21T15:10:57.061Z,15.10
2017-12-21T15:13:24.995Z,16.20
2017-12-21T15:15:52.688Z,14.95
2017-12-21T15:18:20.369Z,13.90
2017-12-21T15:20:48.272Z,15.02
2017-12-21T15:23:15.977Z,14.82
2017-12-21T15:25:43.664Z,13.45
2017-12-21T15:28:12.169Z,14.65
2017-12-21T15:30:39.852Z,16.42
2017-12-21T15:33:07.539Z,14.55
2017-12-21T15:35:35.445Z,16.27
2017-12-21T15:38:03.169Z,14.40
2017-12-21T15:40:30.902Z,16.25
2017-12-21T15:42:58.657Z,14.10
2017-12-21T15:45:26.341Z,12.95
2017-12-21T15:47:54.054Z,16.48
2017-12-21T15:50:21.883Z,18.35
2017-12-21T15:52:50.350Z,20.40
2017-12-21T15:55:18.036Z,19.37
2017-12-21T15:57:46.593Z,22.35
2017-12-21T16:00:14.441Z,20.27
2017-12-21T16:02:42.242Z,22.15
2017-12-21T16:05:10.898Z,22.62
2017-12-21T16:07:38.654Z,23.58
2017-12-21T16:10:06.392Z,20.77
2017-12-21T16:12:34.224Z,22.48
2017-12-21T16:15:02.032Z,21.23
2017-12-21T16:17:29.738Z,21.90
2017-12-21T16:19:57.514Z,18.35
2017-12-21T16:22:25.193Z,19.55
2017-12-21T16:24:53.094Z,19.02
2017-12-21T16:27:20.862Z,17.95
2017-12-21T16:29:49.006Z,18.17
2017-12-21T16:32:16.753Z,15.85
2017-12-21T16:34:44.563Z,18.42
2017-12-21T16:37:12.344Z,18.12
2017-12-21T16:39:40.914Z,15.65
2017-12-21T16:42:09.451Z,16.15
2017-12-21T16:44:37.320Z,17.40
2017-12-21T16:47:05.014Z,16.12
2017-12-21T16:49:33.338Z,16.83
2017-12-21T16:52:01.034Z,15.30
2017-12-21T16:54:29.045Z,16.83
2017-12-21T16:56:57.016Z,16.30
2017-12-21T16:59:24.708Z,19.02
2017-12-21T17:01:52.453Z,18.83
2017-12-21T17:04:20.366Z,21.45
2017-12-21T17:06:48.153Z,20.25
2017-12-21T17:09:17.542Z,20.58
2017-12-21T17:11:46.218Z,17.92
2017-12-21T17:14:14.697Z,17.42
2017-12-21T17:16:43.151Z,18.27
2017-12-21T17:19:10.922Z,18.25
2017-12-21T17:21:38.614Z,18.65
2017-12-21T17:24:06.321Z,17.50
2017-12-21T17:26:34.099Z,18.52
2017-12-21T17:29:01.797Z,21.50
2017-12-21T17:31:29.476Z,19.85
2017-12-21T17:33:57.227Z,20.65
2017-12-21T17:36:24.986Z,18.65
2017-12-21T17:38:52.693Z,17.52
2017-12-21T17:41:22.814Z,21.60
2017-12-21T17:43:50.982Z,21.25
2017-12-21T17:46:19.570Z,21.92
2017-12-21T17:48:47.403Z,20.42
2017-12-21T17:51:15.100Z,22.05
2017-12-21T17:53:42.800Z,21.20
2017-12-21T17:56:11.705Z,22.55
2017-12-21T17:58:39.395Z,20.55
2017-12-21T18:01:07.878Z,19.25
2017-12-21T18:03:35.626Z,18.23
2017-12-21T18:06:03.326Z,17.85
2017-12-21T18:08:31.068Z,19.60
2017-12-21T18:10:58.913Z,18.62
2017-12-21T18:13:26.653Z,19.48
2017-12-21T18:15:54.867Z,19.70
2017-12-21T18:18:22.619Z,19.62
2017-12-21T18:20:50.309Z,20.70
2017-12-21T18:23:18.770Z,17.12
2017-12-21T18:25:46.534Z,18.27
2017-12-21T18:28:15.023Z,18.67
2017-12-21T18:30:43.481Z,17.27
2017-12-21T18:33:11.218Z,19.65
2017-12-21T18:35:38.910Z,17.17
2017-12-21T18:38:06.601Z,17.23
2017-12-21T18:40:34.346Z,17.05
2017-12-21T18:43:02.810Z,16.37
2017-12-21T18:45:30.513Z,18.58
2017-12-21T18:47:58.294Z,17.12
2017-12-21T18:50:26.048Z,17.50
2017-12-21T18:52:53.729Z,17.95
2017-12-21T18:55:21.470Z,19.08
2017-12-21T18:57:49.163Z,16.75
2017-12-21T19:00:16.877Z,16.08
2017-12-21T19:02:44.875Z,16.08
2017-12-21T19:05:12.645Z,17.70
2017-12-21T19:07:40.340Z,19.10
2017-12-21T19:10:08.857Z,17.73
2017-12-21T19:12:36.583Z,18.85
2017-12-21T19:15:05.072Z,17.37
2017-12-21T19:17:32.826Z,18.83
2017-12-21T19:20:01.277Z,18.77
2017-12-21T19:22:28.969Z,18.15
2017-12-21T19:24:57.497Z,17.05
2017-12-21T19:27:25.204Z,17.02
2017-12-21T19:29:52.894Z,17.12
2017-12-21T19:32:20.661Z,17.05
2017-12-21T19:34:48.365Z,17.75
2017-12-21T19:37:16.073Z,21.25
2017-12-21T19:39:43.822Z,18.65
2017-12-21T19:42:11.521Z,21.10
2017-12-21T19:44:39.211Z,22.67
2017-12-21T19:47:07.736Z,25.65
2017-12-21T19:49:35.450Z,22.92
2017-12-21T19:52:03.133Z,30.17
2017-12-21T19:54:30.903Z,20.37
2017-12-21T19:56:59.495Z,19.58
2017-12-21T19:59:27.190Z,17.35
2017-12-21T20:01:54.942Z,17.27
2017-12-21T20:04:22.641Z,18.45
2017-12-21T20:06:51.111Z,18.25
2017-12-21T20:09:18.874Z,17.48
2017-12-21T20:11:46.579Z,19.30
2017-12-21T20:14:14.282Z,16.83
2017-12-21T20:16:42.042Z,14.25
2017-12-21T20:19:09.736Z,17.10
2017-12-21T20:21:38.238Z,16.05
2017-12-21T20:24:05.989Z,15.07
2017-12-21T20:26:33.726Z,16.42
2017-12-21T20:29:02.241Z,14.73
2017-12-21T20:31:29.986Z,17.90
2017-12-21T20:33:57.683Z,18.67
2017-12-21T20:36:25.374Z,18.10
2017-12-21T20:38:53.138Z,16.45
2017-12-21T20:41:20.854Z,15.25
2017-12-21T20:43:48.585Z,14.98
2017-12-21T20:46:16.340Z,14.95
2017-12-21T20:48:44.806Z,16.50
2017-12-21T20:51:12.494Z,15.35
2017-12-21T20:53:40.241Z,13.25
2017-12-21T20:56:08.694Z,17.17
2017-12-21T20:58:36.381Z,17.08
2017-12-21T21:01:04.909Z,14.90
2017-12-21T21:03:32.626Z,15.07
2017-12-21T21:06:00.329Z,14.73
2017-12-21T21:08:28.185Z,13.68
2017-12-21T21:10:55.889Z,13.23
2017-12-21T21:13:24.370Z,13.07
2017-12-21T21:15:52.984Z,14.30
2017-12-21T21:18:20.702Z,13.90
2017-12-21T21:20:48.425Z,15.13
2017-12-21T21:23:16.169Z,16.33
2017-12-21T21:25:44.067Z,14.82
2017-12-21T21:28:11.832Z,15.32
2017-12-21T21:30:39.610Z,14.45
2017-12-21T21:33:07.307Z,16.15
2017-12-21T21:35:35.030Z,15.00
2017-12-21T21:38:02.794Z,16.20
2017-12-21T21:40:30.525Z,15.43
2017-12-21T21:42:58.316Z,16.95
2017-12-21T21:45:26.620Z,16.67
2017-12-21T21:47:54.326Z,16.17
2017-12-21T21:50:22.012Z,12.23
2017-12-21T21:52:49.767Z,12.68
2017-12-21T21:55:17.489Z,13.60
2017-12-21T21:57:45.243Z,13.25
2017-12-21T22:00:13.021Z,13.50
2017-12-21T22:02:40.770Z,17.55
2017-12-21T22:05:08.463Z,11.75
2017-12-21T22:07:36.230Z,12.43
2017-12-21T22:10:04.966Z,14.35
2017-12-21T22:12:32.708Z,11.40
2017-12-21T22:15:01.254Z,18.20
2017-12-21T22:17:29.603Z,12.48
2017-12-21T22:19:57.506Z,16.60
2017-12-21T22:22:25.282Z,12.13
2017-12-21T22:24:53.790Z,10.98
2017-12-21T22:27:21.502Z,13.35
2017-12-21T22:29:49.349Z,16.27
2017-12-21T22:32:17.038Z,14.95
2017-12-21T22:34:44.743Z,10.57
2017-12-21T22:37:12.517Z,13.18
2017-12-21T22:39:40.385Z,12.40
2017-12-21T22:42:08.114Z,12.07
2017-12-21T22:44:35.897Z,12.70
2017-12-21T22:47:03.682Z,12.90
2017-12-21T22:49:31.431Z,11.75
2017-12-21T22:51:59.212Z,10.65
2017-12-21T22:54:26.925Z,12.35
2017-12-21T22:56:54.674Z,12.27
2017-12-21T22:59:23.217Z,10.77
2017-12-21T23:01:50.930Z,11.70
2017-12-21T23:04:18.693Z,11.35
2017-12-21T23:06:46.466Z,12.27
2017-12-21T23:09:14.166Z,12.27
2017-12-21T23:11:41.860Z,19.15
2017-12-21T23:14:09.616Z,18.33
2017-12-21T23:16:38.129Z,12.25
2017-12-21T23:19:05.850Z,10.10
2017-12-21T23:21:34.389Z,12.73
2017-12-21T23:24:02.102Z,11.25
2017-12-21T23:26:29.862Z,12.15
2017-12-21T23:28:58.394Z,11.50
2017-12-21T23:31:26.086Z,9.98
2017-12-21T23:33:54.569Z,11.93
2017-12-21T23:36:23.085Z,10.55
2017-12-21T23:38:50.778Z,11.07
2017-12-21T23:41:18.485Z,9.68
2017-12-21T23:43:46.239Z,9.18
2017-12-21T23:46:14.701Z,10.77
2017-12-21T23:48:43.170Z,10.70
2017-12-21T23:51:10.953Z,9.65
2017-12-21T23:53:39.447Z,9.20
2017-12-21T23:56:07.933Z,9.45
2017-12-21T23:58:35.677Z,10.48
